Athens, Georgia
Current Conditions -  °F | °C
As of 6:58 AM on Monday 24 Nov 2014 (Local Time) from KAHN Reporting Station
Moderate Fog Moderate Fog  
Wind Chill: 14°   Ceiling: 200
Heat Index: 14°   Visibility: 0.5mi
Dew Point: 14°   Wind: 6mph
Humidity: 100%   Direction: NA
Pressure: 29.79"   Gusts: NA
Location:  33.96°N, 83.37°W
Report Text: KAHN 241158Z AUTO VRB05KT 1/2SM FG VV002 14/14 A2979 RMK AO2 T01390139 $
Loading
Personal Weather Stations






























Interactive Weather Map New forecast layout! Learn more

10-Day Weather Forecast

Advertisements
Track Severe Weather on mobile